Osgood, IN

02:09 AM EST dna 20 December, 2014 (GMT -0500)
KINBATES2 | Change Station
CLOSE
Current Station
Personal Weather Stations
Location: Batesville, IN
Nad. výška:: 974 ft
Najbližšie meteo stanice

Elev 974 ft 39.29 °N, 85.23 °W | Updated 6 minutes ago

Zamračené
Zamračené
28.7 °F
Feels Like 29 °F
N
0.0
Vietor meniaci sa Vietor from SSV
Gusts 0.0 mph

Dnes
High -- | Low -- °F
--% Chance of Precip.
Yesterday
High -- | Low -- °F
Precip. -- in
7:56 AM 5:21 PM
Ubúdajúci mesiac, 4. fáza, 4% visible
Tlak 30.28 in
Viditeľnosť 10.0 mile
Oblačnost Zamračené 1900 ft
Pocitová teplota 29 °F
Rosný bod 25 °F
Vlhkosť 85%
Rainfall 0.00 in
Výška snehu Not available.
UV 0 out of 12
Pollen .10 out of 12
Air Quality Not available.
Flu Activity Not available.
METAR KCVG 200652Z 12005KT 10SM OVC019 M01/M06 A3025 RMK AO2 SLP252 T10111061

More Conditions Fewer Conditions

Tlak 30.28 in
Viditeľnosť 10.0 mile
Oblačnost Zamračené 1900 ft
Pocitová teplota 29 °F
Rosný bod 25 °F
Vlhkosť 85%
Rainfall 0.00 in
Výška snehu Not available.
UV 0 out of 12
Pollen .10 out of 12
Air Quality Not available.
Flu Activity Not available.
METAR KCVG 200652Z 12005KT 10SM OVC019 M01/M06 A3025 RMK AO2 SLP252 T10111061

More Conditions Fewer Conditions

10-Day Weather Forecast

Almanac

Astronómia

Dec. 20, 2014 Východ Západ
Aktuálny čas
Civil Twilight
Nautical Twilight
Astronomical Twilight
Mesiac
Length Of Visible Light
Dĺžka dňa
Tomorrow will be .
, % of the Moon is Illuminated

Today's Extremes

State Highs State Lows

Community

WunderPhotos

Upload Photos

1,779,146 photos uploaded!

WunderBlogs® & News

Nearby

Air Quality

  Air Quality AQ Index Pollutant
Not available.

Výska snehu

Station Depth Nad. výška:

Aktivita zemetrasenia

Mesto Distance Mag. Time & Date
Minimum magnitude displayed is 2.5.

Coastal Water Temperatures

Miesto Teplota

Najbližšie meteo stanice